Time;durP1;ratioP1;P1;durP2;ratioP2;P2;SDS_P1;SDS_P2;PMS_P1;PMS_P2;Temp;Humidity;BMP_temperature;BMP_pressure;BME280_temperature;BME280_humidity;BME280_pressure;Samples;Min_cycle;Max_cycle;Signal;HPM_P1;HPM_P2
2023/03/05 00:01:28;;;;;;;18.33;11.77;;;;;;;2.02;58.18;97675.25;6289737;28;20238;-35
2023/03/05 00:04:30;;;;;;;16.80;11.50;;;;;;;2.06;58.10;97687.81;6288578;28;20733;-35
2023/03/05 00:07:32;;;;;;;18.60;11.87;;;;;;;2.23;57.29;97700.75;6290966;28;20614;-35
2023/03/05 00:10:34;;;;;;;18.53;12.83;;;;;;;2.14;57.39;97689.53;6292102;28;20289;-35
2023/03/05 00:13:37;;;;;;;16.77;11.83;;;;;;;2.18;57.74;97697.88;6284957;28;20222;-35
2023/03/05 00:16:39;;;;;;;18.27;12.93;;;;;;;2.21;57.50;97693.03;6286748;28;20231;-35
2023/03/05 00:19:41;;;;;;;19.63;12.57;;;;;;;1.86;56.75;97628.22;6286498;28;20246;-35
2023/03/05 00:22:43;;;;;;;17.37;12.17;;;;;;;2.10;56.64;97674.31;6271825;28;20232;-35
2023/03/05 00:25:45;;;;;;;19.67;11.90;;;;;;;1.96;57.50;97642.66;6269586;28;20559;-35
2023/03/05 00:28:49;;;;;;;18.10;12.30;;;;;;;2.14;57.60;97667.69;6289427;28;20712;-35
2023/03/05 00:31:51;;;;;;;19.33;11.90;;;;;;;2.27;57.42;97666.00;6288327;28;20774;-35
2023/03/05 00:34:53;;;;;;;18.33;12.07;;;;;;;2.25;56.90;97652.22;6288599;28;20240;-35
2023/03/05 00:37:55;;;;;;;17.67;11.83;;;;;;;2.28;57.15;97657.13;6270165;28;20240;-35
2023/03/05 00:40:57;;;;;;;18.13;11.53;;;;;;;2.24;57.24;97660.31;6290147;28;20230;-35
2023/03/05 00:43:59;;;;;;;16.77;11.17;;;;;;;2.16;57.31;97661.25;6280066;28;20230;-35
2023/03/05 00:47:01;;;;;;;15.73;10.40;;;;;;;2.18;57.19;97643.50;6291590;28;20724;-35
2023/03/05 00:50:05;;;;;;;17.03;10.33;;;;;;;2.17;57.44;97638.41;6291635;28;20226;-35
2023/03/05 00:53:07;;;;;;;19.00;11.67;;;;;;;1.96;57.37;97584.88;6276621;28;20315;-35
2023/03/05 00:56:09;;;;;;;18.70;10.53;;;;;;;2.17;58.20;97628.72;6276165;28;20243;-35
2023/03/05 00:59:11;;;;;;;19.53;11.13;;;;;;;2.02;58.11;97607.78;6293262;28;20272;-35
2023/03/05 01:02:14;;;;;;;16.03;10.37;;;;;;;2.10;57.65;97614.69;6296700;28;20315;-35
2023/03/05 01:05:16;;;;;;;17.03;10.87;;;;;;;2.09;57.67;97620.97;6293196;28;20234;-35
2023/03/05 01:08:18;;;;;;;15.13;10.17;;;;;;;2.21;57.71;97624.69;6294433;28;20235;-35
2023/03/05 01:11:21;;;;;;;15.60;9.53;;;;;;;2.12;57.67;97615.34;6294194;28;20226;-35
2023/03/05 01:14:23;;;;;;;16.60;10.97;;;;;;;2.15;57.67;97619.41;6277027;28;20230;-35
2023/03/05 01:17:25;;;;;;;14.00;9.67;;;;;;;2.11;58.14;97613.69;6294983;28;20376;-35
2023/03/05 01:20:27;;;;;;;15.47;10.30;;;;;;;2.14;58.35;97618.59;6306870;28;20319;-35
2023/03/05 01:23:29;;;;;;;14.60;9.20;;;;;;;2.11;58.68;97621.56;6293970;28;20228;-35
2023/03/05 01:26:32;;;;;;;15.97;9.70;;;;;;;1.87;58.53;97593.06;6271112;28;20293;-35
2023/03/05 01:29:35;;;;;;;13.03;9.57;;;;;;;1.95;58.76;97611.34;6277412;28;20226;-35
2023/03/05 01:32:38;;;;;;;13.40;8.93;;;;;;;2.13;58.30;97616.16;6308421;28;20241;-35
2023/03/05 01:35:40;;;;;;;15.53;9.90;;;;;;;2.03;58.55;97598.88;6296474;28;20239;-35
2023/03/05 01:38:44;;;;;;;16.47;10.03;;;;;;;2.21;58.63;97606.28;6290341;28;20240;-35
2023/03/05 01:41:46;;;;;;;12.37;8.80;;;;;;;2.14;59.10;97631.72;6293679;28;20263;-36
2023/03/05 01:45:10;;;;;;;14.47;8.97;;;;;;;1.78;59.04;97564.34;6292198;28;20229;-35
2023/03/05 01:48:12;;;;;;;15.23;9.30;;;;;;;2.24;59.20;97611.19;6288923;28;20219;-35
2023/03/05 01:51:15;;;;;;;14.70;9.63;;;;;;;2.20;59.12;97599.41;6288710;28;20680;-37
2023/03/05 01:54:20;;;;;;;11.77;9.10;;;;;;;1.92;58.88;97557.38;6291953;28;20238;-35
2023/03/05 01:57:28;;;;;;;14.47;9.30;;;;;;;1.94;59.23;97551.94;6306489;28;20246;-36
2023/03/05 02:00:35;;;;;;;15.03;10.43;;;;;;;2.17;59.38;97588.47;6307984;28;20310;-35
2023/03/05 02:03:37;;;;;;;17.03;10.23;;;;;;;2.13;59.54;97595.94;6291478;28;20224;-36
2023/03/05 02:06:42;;;;;;;13.93;9.83;;;;;;;2.11;59.57;97592.66;6281196;28;20603;-36
2023/03/05 02:09:46;;;;;;;14.37;9.57;;;;;;;2.18;59.40;97593.56;6292117;28;20242;-36
2023/03/05 02:12:50;;;;;;;19.07;10.50;;;;;;;2.16;59.46;97602.63;6290930;28;20227;-35
2023/03/05 02:15:54;;;;;;;13.43;9.40;;;;;;;2.15;59.34;97599.19;6289843;28;20322;-36
2023/03/05 02:18:56;;;;;;;17.23;9.67;;;;;;;2.01;60.49;97592.19;6305435;28;20230;-36
2023/03/05 02:21:58;;;;;;;14.77;10.00;;;;;;;2.05;60.11;97582.94;6291584;28;20236;-35
2023/03/05 02:25:00;;;;;;;13.67;9.53;;;;;;;2.16;60.38;97594.72;6292064;28;20231;-35
2023/03/05 02:28:12;;;;;;;16.80;9.93;;;;;;;2.19;61.08;97592.53;6275817;28;20302;-35
2023/03/05 02:31:18;;;;;;;16.20;10.27;;;;;;;2.13;61.61;97587.25;6289686;28;20238;-35
2023/03/05 02:34:22;;;;;;;17.37;10.03;;;;;;;2.10;61.34;97592.88;6290737;28;20227;-36
2023/03/05 02:37:24;;;;;;;14.97;9.97;;;;;;;1.99;61.92;97573.19;6287772;28;20279;-35
2023/03/05 02:40:26;;;;;;;16.37;10.33;;;;;;;2.10;61.36;97577.91;6271949;28;20263;-35
2023/03/05 02:43:28;;;;;;;15.57;9.73;;;;;;;2.10;61.28;97579.72;6292225;28;20260;-35
2023/03/05 02:46:30;;;;;;;17.13;9.83;;;;;;;2.08;60.88;97569.44;6304582;28;20227;-36
2023/03/05 02:49:32;;;;;;;16.83;10.53;;;;;;;2.13;60.84;97571.47;6288327;28;20231;-35
2023/03/05 02:52:35;;;;;;;15.47;10.40;;;;;;;2.02;61.22;97571.00;6277369;28;20727;-36
2023/03/05 02:55:39;;;;;;;19.27;10.20;;;;;;;2.11;61.17;97563.78;6265383;28;20240;-36
2023/03/05 02:58:41;;;;;;;17.63;9.83;;;;;;;1.87;60.28;97512.47;6287867;28;20291;-35
2023/03/05 03:01:43;;;;;;;16.30;9.33;;;;;;;2.15;61.07;97570.28;6273842;28;20697;-36
2023/03/05 03:04:46;;;;;;;13.47;9.30;;;;;;;2.24;60.15;97560.44;6275003;28;20315;-36
2023/03/05 03:07:48;;;;;;;15.70;9.17;;;;;;;2.15;60.93;97558.97;6289803;28;20640;-35
2023/03/05 03:10:50;;;;;;;14.03;9.67;;;;;;;2.12;60.51;97562.78;6291168;28;20223;-36
2023/03/05 03:13:52;;;;;;;17.00;9.80;;;;;;;2.16;60.70;97560.56;6291129;28;20238;-35
2023/03/05 03:16:54;;;;;;;14.00;9.77;;;;;;;2.22;60.77;97551.94;6289621;28;20681;-35
2023/03/05 03:19:56;;;;;;;14.33;9.03;;;;;;;1.17;60.99;97398.63;6289788;28;20326;-35
2023/03/05 03:22:58;;;;;;;14.27;10.07;;;;;;;2.15;61.33;97548.44;6289204;28;20661;-35
2023/03/05 03:26:00;;;;;;;11.93;8.93;;;;;;;1.51;60.92;97458.25;6289839;28;20244;-36
2023/03/05 03:29:03;;;;;;;14.83;9.40;;;;;;;2.22;61.39;97544.88;6293636;28;20325;-36
2023/03/05 03:32:07;;;;;;;14.73;9.53;;;;;;;2.07;61.27;97536.28;6289399;28;20228;-38
2023/03/05 03:35:10;;;;;;;13.57;9.23;;;;;;;1.94;61.56;97483.63;6291068;28;20216;-36
2023/03/05 03:38:12;;;;;;;12.87;8.30;;;;;;;2.24;61.38;97529.72;6289383;28;20752;-36
2023/03/05 03:41:15;;;;;;;13.87;8.60;;;;;;;1.96;61.01;97489.50;6289817;28;20230;-35
2023/03/05 03:44:18;;;;;;;13.27;8.80;;;;;;;2.24;61.12;97527.09;6288203;28;20230;-35
2023/03/05 03:47:20;;;;;;;15.27;9.37;;;;;;;2.26;61.31;97526.88;6293331;28;20694;-36
2023/03/05 03:50:23;;;;;;;12.23;8.10;;;;;;;2.16;61.52;97524.59;6291978;28;20229;-36
2023/03/05 03:53:25;;;;;;;13.50;8.30;;;;;;;2.19;61.95;97515.53;6290592;28;20242;-36
2023/03/05 03:56:27;;;;;;;12.03;8.63;;;;;;;2.30;61.59;97528.94;6271812;28;20230;-35
2023/03/05 03:59:29;;;;;;;13.87;8.47;;;;;;;2.24;61.78;97516.56;6287091;28;20295;-36
2023/03/05 04:02:32;;;;;;;11.87;8.10;;;;;;;2.31;61.67;97508.72;6286594;28;20226;-35
2023/03/05 04:05:34;;;;;;;10.57;8.10;;;;;;;2.28;61.55;97517.00;6286270;28;20855;-36
2023/03/05 04:08:36;;;;;;;10.83;8.00;;;;;;;2.16;61.75;97494.88;6288410;28;20311;-36
2023/03/05 04:11:38;;;;;;;12.63;7.80;;;;;;;2.16;62.14;97510.66;6292247;28;20235;-36
2023/03/05 04:14:40;;;;;;;11.17;7.83;;;;;;;2.23;62.21;97517.59;6288028;28;20238;-36
2023/03/05 04:17:42;;;;;;;14.77;8.33;;;;;;;2.13;62.11;97498.72;6293387;28;20232;-36
2023/03/05 04:20:44;;;;;;;11.27;8.20;;;;;;;2.23;62.27;97495.75;6294740;28;20233;-35
2023/03/05 04:23:46;;;;;;;9.70;7.73;;;;;;;2.26;61.95;97501.41;6296448;28;20733;-36
2023/03/05 04:26:48;;;;;;;12.57;7.97;;;;;;;2.06;62.11;97459.25;6296141;28;20725;-35
2023/03/05 04:29:50;;;;;;;10.87;7.43;;;;;;;2.32;62.10;97492.78;6295400;28;20701;-36
2023/03/05 04:32:52;;;;;;;12.10;8.37;;;;;;;2.21;61.58;97453.88;6294212;28;20609;-35
2023/03/05 04:35:54;;;;;;;9.97;7.23;;;;;;;2.31;61.70;97477.16;6293601;28;20236;-35
2023/03/05 04:38:56;;;;;;;10.87;8.17;;;;;;;2.45;61.16;97501.72;6291916;28;20233;-35
2023/03/05 04:41:58;;;;;;;11.70;8.27;;;;;;;2.46;61.54;97492.81;6292894;28;20318;-36
2023/03/05 04:45:00;;;;;;;11.93;8.03;;;;;;;2.35;61.62;97493.38;6297023;28;20248;-36
2023/03/05 04:48:03;;;;;;;10.13;7.83;;;;;;;2.23;61.06;97453.69;6291150;28;20680;-36
2023/03/05 04:51:05;;;;;;;10.10;7.40;;;;;;;1.85;61.47;97412.03;6293362;28;20239;-36
2023/03/05 04:54:07;;;;;;;10.33;7.30;;;;;;;2.23;61.85;97474.72;6290248;28;20218;-36
2023/03/05 04:57:09;;;;;;;10.93;8.67;;;;;;;2.13;61.79;97475.06;6292010;28;20211;-36
2023/03/05 05:00:14;;;;;;;14.47;10.00;;;;;;;2.13;62.55;97492.66;6291177;28;20240;-35
2023/03/05 05:03:16;;;;;;;15.13;10.27;;;;;;;1.83;63.09;97473.66;6295230;28;20715;-43
2023/03/05 05:06:18;;;;;;;15.50;9.73;;;;;;;2.01;63.32;97489.72;6289666;28;20214;-36
2023/03/05 05:09:20;;;;;;;18.37;9.97;;;;;;;2.13;63.59;97492.66;6292373;28;20292;-36
2023/03/05 05:12:22;;;;;;;16.73;9.80;;;;;;;2.15;63.52;97494.06;6290133;28;20812;-35
2023/03/05 05:15:26;;;;;;;20.17;11.00;;;;;;;2.16;63.40;97490.44;6290252;28;20251;-36
2023/03/05 05:18:28;;;;;;;18.73;10.63;;;;;;;2.11;63.64;97497.28;6296291;28;20232;-36
2023/03/05 05:21:30;;;;;;;17.37;11.63;;;;;;;2.22;63.54;97508.06;6283103;28;20252;-35
2023/03/05 05:24:32;;;;;;;17.30;10.83;;;;;;;2.07;63.65;97496.88;6292432;28;20244;-35
2023/03/05 05:27:35;;;;;;;18.20;11.10;;;;;;;2.16;64.11;97500.94;6292097;28;20715;-35
2023/03/05 05:30:37;;;;;;;17.90;10.30;;;;;;;2.12;64.12;97509.41;6294744;28;20233;-35
2023/03/05 05:33:40;;;;;;;20.63;12.13;;;;;;;1.84;64.15;97451.63;6292409;28;20274;-36
2023/03/05 05:36:42;;;;;;;21.33;11.70;;;;;;;2.26;63.89;97500.59;6274008;28;20229;-35
2023/03/05 05:39:48;;;;;;;20.77;11.93;;;;;;;2.23;63.77;97495.75;6291960;28;20258;-35
2023/03/05 05:42:51;;;;;;;18.73;11.73;;;;;;;2.22;64.11;97494.13;6292397;28;20240;-35
2023/03/05 05:45:53;;;;;;;19.43;12.23;;;;;;;2.23;64.07;97488.66;6292306;28;20271;-36
2023/03/05 05:48:55;;;;;;;18.83;11.63;;;;;;;2.22;63.87;97489.69;6289724;28;20293;-36
2023/03/05 05:51:58;;;;;;;18.33;10.70;;;;;;;2.20;64.31;97486.41;6288577;28;20236;-35
2023/03/05 05:54:59;;;;;;;22.73;11.13;;;;;;;2.25;64.06;97488.47;6278649;28;20244;-36
2023/03/05 05:58:01;;;;;;;16.97;11.03;;;;;;;2.21;64.11;97476.72;6291587;28;20323;-35
2023/03/05 06:01:14;;;;;;;17.57;11.30;;;;;;;2.24;63.65;97479.78;6290299;28;20702;-35
2023/03/05 06:04:16;;;;;;;24.47;11.53;;;;;;;2.24;63.95;97461.38;6290687;28;20268;-37
2023/03/05 06:07:18;;;;;;;19.47;12.37;;;;;;;2.08;63.78;97447.75;6292874;28;20321;-35
2023/03/05 06:10:20;;;;;;;20.13;11.67;;;;;;;1.77;63.81;97418.28;6291744;28;20700;-35
2023/03/05 06:13:22;;;;;;;18.37;11.17;;;;;;;2.22;63.93;97463.41;6290833;28;21010;-35
2023/03/05 06:16:24;;;;;;;15.27;10.07;;;;;;;2.01;64.00;97437.19;6290062;28;20278;-36
2023/03/05 06:19:28;;;;;;;20.83;11.03;;;;;;;2.35;64.06;97474.97;6291031;28;20732;-36
2023/03/05 06:22:30;;;;;;;20.50;11.40;;;;;;;2.36;63.67;97485.28;6288050;28;20242;-36
2023/03/05 06:25:32;;;;;;;16.50;11.60;;;;;;;2.36;63.56;97481.84;6272257;28;20689;-36
2023/03/05 06:28:35;;;;;;;19.07;11.23;;;;;;;2.51;63.23;97483.38;6291043;28;20943;-35
2023/03/05 06:31:38;;;;;;;21.23;11.87;;;;;;;2.59;62.57;97490.25;6288419;28;20366;-36
2023/03/05 06:34:40;;;;;;;16.20;11.33;;;;;;;2.26;63.04;97440.16;6291012;28;20584;-36
2023/03/05 06:37:42;;;;;;;19.27;11.17;;;;;;;2.54;62.80;97492.66;6288487;28;20232;-36
2023/03/05 06:40:44;;;;;;;22.67;12.90;;;;;;;2.47;63.04;97487.38;6289883;28;20227;-36
2023/03/05 06:43:47;;;;;;;20.33;12.23;;;;;;;2.56;62.75;97485.38;6290968;28;20704;-36
2023/03/05 06:46:50;;;;;;;20.97;13.03;;;;;;;2.53;62.24;97475.28;6289165;28;20234;-36
2023/03/05 06:49:52;;;;;;;18.73;12.87;;;;;;;2.61;62.11;97472.50;6264244;28;20240;-36
2023/03/05 06:52:54;;;;;;;19.00;12.33;;;;;;;2.67;62.03;97469.06;6288458;28;20326;-36
2023/03/05 06:55:56;;;;;;;21.60;13.50;;;;;;;2.80;61.76;97482.25;6288465;28;20238;-36
2023/03/05 06:58:58;;;;;;;17.67;11.67;;;;;;;2.69;61.92;97472.31;6289876;28;20367;-36
2023/03/05 07:02:00;;;;;;;21.93;13.47;;;;;;;2.91;61.13;97482.72;6294872;28;20706;-36
2023/03/05 07:05:03;;;;;;;19.47;13.20;;;;;;;2.95;60.79;97489.19;6288682;28;20315;-36
2023/03/05 07:08:05;;;;;;;19.13;12.83;;;;;;;2.99;60.38;97483.31;6281365;28;20218;-36
2023/03/05 07:11:12;;;;;;;19.47;12.40;;;;;;;2.98;60.45;97488.78;6293973;28;20745;-36
2023/03/05 07:14:14;;;;;;;20.03;13.17;;;;;;;2.82;60.64;97447.88;6286858;28;20344;-36
2023/03/05 07:17:16;;;;;;;17.40;11.17;;;;;;;2.95;60.74;97484.72;6289548;28;20343;-36
2023/03/05 07:20:18;;;;;;;19.07;12.73;;;;;;;2.94;61.14;97488.38;6288979;28;20234;-36
2023/03/05 07:23:21;;;;;;;17.60;12.20;;;;;;;2.94;60.83;97490.19;6269237;28;20558;-35
2023/03/05 07:26:24;;;;;;;16.67;11.23;;;;;;;2.91;60.39;97475.63;6289049;28;20308;-36
2023/03/05 07:29:26;;;;;;;16.97;10.77;;;;;;;2.97;60.51;97484.53;6288971;28;20229;-36
2023/03/05 07:32:28;;;;;;;18.67;11.60;;;;;;;3.03;60.52;97481.13;6288803;28;20223;-36
2023/03/05 07:35:30;;;;;;;17.70;11.37;;;;;;;3.11;60.06;97478.31;6279680;28;20713;-36
2023/03/05 07:38:32;;;;;;;18.67;11.47;;;;;;;3.13;60.62;97486.00;6285153;28;20259;-36
2023/03/05 07:41:35;;;;;;;15.47;11.47;;;;;;;2.95;60.18;97454.97;6289214;28;20234;-36
2023/03/05 07:44:37;;;;;;;15.20;10.23;;;;;;;3.21;60.01;97483.19;6289057;28;20229;-37
2023/03/05 07:47:39;;;;;;;16.83;10.87;;;;;;;3.00;60.08;97484.13;6291047;28;20233;-36
2023/03/05 07:50:42;;;;;;;16.87;11.30;;;;;;;3.15;60.36;97479.50;6286652;28;20696;-36
2023/03/05 07:53:46;;;;;;;16.20;11.60;;;;;;;3.38;59.76;97465.19;6288941;28;20309;-36
2023/03/05 07:56:48;;;;;;;16.37;11.60;;;;;;;3.41;59.60;97460.34;6272448;28;20236;-36
2023/03/05 07:59:50;;;;;;;15.47;11.27;;;;;;;3.34;59.12;97476.09;6290245;28;20713;-36
2023/03/05 08:02:52;;;;;;;18.97;11.53;;;;;;;3.27;59.40;97459.50;6269940;28;20719;-36
2023/03/05 08:05:54;;;;;;;18.73;12.27;;;;;;;3.34;59.05;97438.44;6288134;28;20233;-36
2023/03/05 08:08:57;;;;;;;17.67;11.47;;;;;;;3.61;58.60;97460.34;6290098;28;20240;-36
2023/03/05 08:12:00;;;;;;;18.93;12.03;;;;;;;3.61;58.22;97455.06;6290106;28;20315;-36
2023/03/05 08:15:02;;;;;;;20.43;11.87;;;;;;;3.59;58.57;97460.53;6278770;28;20282;-35
2023/03/05 08:18:04;;;;;;;20.27;11.77;;;;;;;3.63;58.50;97459.09;6274332;28;20992;-36
2023/03/05 08:21:18;;;;;;;15.60;11.13;;;;;;;3.69;58.19;97449.56;6290216;28;20333;-36
2023/03/05 08:24:22;;;;;;;16.30;11.63;;;;;;;3.83;57.62;97455.66;6291073;28;20229;-36
2023/03/05 08:27:24;;;;;;;16.63;11.53;;;;;;;3.83;57.73;97453.03;6288706;28;20278;-36
2023/03/05 08:30:26;;;;;;;19.10;13.00;;;;;;;3.99;57.82;97454.41;6289941;28;20222;-36
2023/03/05 08:33:28;;;;;;;18.07;13.10;;;;;;;4.11;57.02;97456.22;6286439;28;20282;-36
2023/03/05 08:36:32;;;;;;;19.10;12.83;;;;;;;3.81;58.00;97455.06;6286695;28;20588;-36
2023/03/05 08:39:35;;;;;;;17.50;12.23;;;;;;;4.02;57.50;97454.81;6288076;28;20246;-36
2023/03/05 08:42:37;;;;;;;18.60;13.17;;;;;;;4.31;56.56;97448.28;6269226;28;20313;-36
2023/03/05 08:45:40;;;;;;;19.53;13.23;;;;;;;4.08;56.12;97434.72;6287415;28;20237;-36
2023/03/05 08:48:42;;;;;;;20.50;12.63;;;;;;;4.33;55.82;97450.69;6281966;28;20232;-36
2023/03/05 08:51:44;;;;;;;21.30;13.33;;;;;;;4.46;55.40;97452.50;6284088;28;20234;-36
2023/03/05 08:54:46;;;;;;;18.50;12.73;;;;;;;4.39;55.49;97468.34;6288063;28;20310;-36
2023/03/05 08:57:48;;;;;;;18.60;12.80;;;;;;;4.45;54.69;97454.31;6286982;28;20715;-36
2023/03/05 09:00:50;;;;;;;17.40;11.53;;;;;;;4.44;55.10;97455.34;6287142;28;20375;-36
2023/03/05 09:03:52;;;;;;;18.07;12.40;;;;;;;4.69;54.89;97452.81;6287233;28;20320;-36
2023/03/05 09:06:56;;;;;;;18.00;12.20;;;;;;;4.69;53.63;97431.69;6290394;28;20239;-36
2023/03/05 09:09:58;;;;;;;16.23;12.03;;;;;;;4.72;53.77;97449.72;6290724;28;20712;-36
2023/03/05 09:13:00;;;;;;;18.93;12.17;;;;;;;4.77;53.88;97446.47;6291455;28;20231;-36
2023/03/05 09:16:10;;;;;;;15.20;11.27;;;;;;;4.95;54.09;97440.50;6290667;28;20217;-36
2023/03/05 09:19:13;;;;;;;19.80;12.30;;;;;;;5.12;53.30;97454.81;6292456;28;20534;-36
2023/03/05 09:22:16;;;;;;;17.63;12.03;;;;;;;5.13;53.01;97433.50;6288645;28;20231;-36
2023/03/05 09:25:18;;;;;;;19.53;13.20;;;;;;;5.24;53.50;97444.38;6294509;28;20235;-36
2023/03/05 09:28:20;;;;;;;18.60;12.70;;;;;;;5.28;53.00;97441.09;6293047;28;20321;-36
2023/03/05 09:31:22;;;;;;;18.90;11.80;;;;;;;5.30;53.42;97446.16;6292265;28;20280;-36
2023/03/05 09:34:24;;;;;;;18.67;12.70;;;;;;;4.96;53.54;97405.97;6294699;28;20227;-36
2023/03/05 09:37:28;;;;;;;16.43;11.80;;;;;;;5.29;53.07;97448.00;6295313;28;20713;-36
2023/03/05 09:40:49;;;;;;;15.33;10.80;;;;;;;5.17;51.79;97424.13;6295075;28;20415;-36
2023/03/05 09:44:12;;;;;;;19.07;12.73;;;;;;;5.32;51.94;97449.41;6292174;28;20261;-36
2023/03/05 09:47:17;;;;;;;16.57;11.70;;;;;;;5.01;52.76;97451.00;6289443;28;20654;-36
2023/03/05 09:50:42;;;;;;;18.80;11.90;;;;;;;5.17;52.75;97450.53;6291580;28;20222;-36
2023/03/05 09:53:52;;;;;;;19.03;11.67;;;;;;;4.63;52.62;97382.41;6279551;28;20311;-36
2023/03/05 09:57:03;;;;;;;15.63;11.20;;;;;;;5.38;52.46;97425.59;6291621;28;20236;-36
2023/03/05 10:00:15;;;;;;;16.73;11.53;;;;;;;6.02;51.12;97431.59;6292156;28;20392;-36
2023/03/05 10:03:24;;;;;;;17.83;12.13;;;;;;;6.29;49.67;97431.28;6289957;28;20223;-36
2023/03/05 10:06:40;;;;;;;21.40;13.77;;;;;;;6.47;49.47;97429.47;6289515;28;20223;-36
2023/03/05 10:09:55;;;;;;;17.97;12.80;;;;;;;6.33;49.63;97421.91;6289614;28;20719;-36
2023/03/05 10:13:04;;;;;;;17.73;12.50;;;;;;;6.44;49.00;97411.38;6292763;28;20228;-36
2023/03/05 10:16:29;;;;;;;19.50;12.97;;;;;;;6.54;48.94;97400.25;6290887;28;20287;-36
2023/03/05 10:19:46;;;;;;;17.30;11.90;;;;;;;6.64;48.38;97368.78;6282960;28;20780;-36
2023/03/05 10:22:57;;;;;;;17.03;12.30;;;;;;;6.89;47.66;97412.84;6289782;28;20258;-36
2023/03/05 10:26:03;;;;;;;19.37;13.17;;;;;;;7.09;47.82;97404.63;6286847;28;20246;-36
2023/03/05 10:29:37;;;;;;;19.00;13.27;;;;;;;7.01;47.78;97410.25;6291285;28;20683;-36
2023/03/05 10:32:48;;;;;;;17.40;11.87;;;;;;;6.90;47.61;97417.94;6291992;28;20334;-36
2023/03/05 10:36:26;;;;;;;18.63;12.50;;;;;;;6.80;46.91;97415.03;6290045;28;20238;-36
2023/03/05 10:40:01;;;;;;;18.03;12.87;;;;;;;6.70;47.92;97410.25;6291583;28;20222;-36
2023/03/05 10:43:09;;;;;;;18.03;12.20;;;;;;;6.69;47.40;97410.47;6293147;28;20240;-36
2023/03/05 10:46:25;;;;;;;17.53;12.40;;;;;;;6.37;48.30;97408.00;6292705;28;20416;-36
2023/03/05 10:49:36;;;;;;;19.63;12.70;;;;;;;6.47;48.87;97397.72;6288024;28;20947;-36
2023/03/05 10:52:45;;;;;;;17.23;12.07;;;;;;;6.47;48.46;97402.19;6289305;28;20387;-36
2023/03/05 10:55:49;;;;;;;19.83;12.90;;;;;;;6.55;47.96;97395.78;6289361;28;20226;-36
2023/03/05 10:58:52;;;;;;;20.57;13.23;;;;;;;6.18;49.18;97401.09;6287283;28;20366;-36
2023/03/05 11:02:07;;;;;;;19.03;13.33;;;;;;;6.08;49.81;97390.22;6290094;28;20239;-36
2023/03/05 11:05:41;;;;;;;20.50;14.27;;;;;;;6.23;49.63;97385.38;6292773;28;20233;-36
2023/03/05 11:08:44;;;;;;;19.23;13.43;;;;;;;6.33;49.23;97385.66;6289174;28;20545;-36
2023/03/05 11:12:07;;;;;;;19.30;13.10;;;;;;;6.46;48.18;97382.88;6289361;28;20229;-36
2023/03/05 11:15:13;;;;;;;17.10;11.87;;;;;;;6.71;47.39;97384.59;6289335;28;20239;-36
2023/03/05 11:18:20;;;;;;;19.40;14.10;;;;;;;6.76;46.91;97378.63;6271894;28;20232;-36
2023/03/05 11:21:26;;;;;;;19.53;12.97;;;;;;;6.66;46.57;97327.03;6291052;28;20232;-36
2023/03/05 11:24:29;;;;;;;18.60;13.10;;;;;;;6.81;46.93;97363.69;6286983;28;20504;-35
2023/03/05 11:27:36;;;;;;;19.80;13.07;;;;;;;6.91;47.41;97363.13;6288064;28;20601;-36
2023/03/05 11:30:39;;;;;;;18.00;12.70;;;;;;;6.95;46.98;97353.72;6290447;28;20605;-36
2023/03/05 11:34:07;;;;;;;18.33;12.70;;;;;;;7.24;45.83;97329.00;6290118;28;20279;-36
2023/03/05 11:37:22;;;;;;;19.97;12.23;;;;;;;7.55;45.15;97342.16;6291337;28;20317;-36
2023/03/05 11:40:28;;;;;;;17.13;12.07;;;;;;;7.86;45.08;97343.63;6293225;28;20241;-36
2023/03/05 11:43:33;;;;;;;18.07;12.70;;;;;;;7.80;43.96;97331.31;6309563;28;20258;-36
2023/03/05 11:46:49;;;;;;;15.67;11.50;;;;;;;8.00;43.62;97334.38;6295773;28;20655;-36
2023/03/05 11:49:59;;;;;;;16.57;12.33;;;;;;;8.17;43.51;97327.28;6292550;28;20302;-36
2023/03/05 11:53:12;;;;;;;16.60;11.77;;;;;;;8.33;43.01;97324.97;6272279;28;20234;-36
2023/03/05 11:56:19;;;;;;;15.67;11.20;;;;;;;8.34;42.40;97316.75;6288194;28;20233;-36
2023/03/05 11:59:34;;;;;;;15.87;10.43;;;;;;;8.59;42.08;97331.59;6291384;28;20590;-36
2023/03/05 12:02:37;;;;;;;16.70;12.07;;;;;;;8.18;41.29;97285.69;6294137;28;20231;-36
2023/03/05 12:05:44;;;;;;;16.73;11.27;;;;;;;8.26;42.09;97331.19;6289231;28;20285;-36
2023/03/05 12:08:54;;;;;;;17.03;11.40;;;;;;;7.76;42.37;97317.69;6300339;28;20725;-36
2023/03/05 12:12:06;;;;;;;15.97;11.10;;;;;;;7.76;43.01;97317.69;6297901;28;20321;-36
2023/03/05 12:15:11;;;;;;;14.73;10.37;;;;;;;8.10;42.18;97318.69;6294551;28;20310;-36
2023/03/05 12:18:28;;;;;;;15.37;11.23;;;;;;;7.72;42.37;97296.13;6288966;28;20221;-36
2023/03/05 12:21:41;;;;;;;14.97;10.60;;;;;;;7.80;42.54;97308.25;6291244;28;20273;-35
2023/03/05 12:24:44;;;;;;;15.43;10.63;;;;;;;7.57;42.89;97305.59;6274371;28;20280;-36
2023/03/05 12:27:47;;;;;;;14.30;9.97;;;;;;;7.33;43.27;97313.56;6293968;28;20225;-36
2023/03/05 12:30:49;;;;;;;16.13;11.37;;;;;;;7.26;43.44;97302.28;6294973;28;20307;-36
2023/03/05 12:33:52;;;;;;;16.50;11.20;;;;;;;7.13;43.75;97291.88;6287798;28;20236;-36
2023/03/05 12:36:54;;;;;;;17.93;11.97;;;;;;;6.96;44.30;97291.75;6293717;28;20231;-36
2023/03/05 12:40:07;;;;;;;13.97;10.53;;;;;;;6.78;43.76;97286.53;6295886;28;20228;-35
2023/03/05 12:43:29;;;;;;;17.43;11.07;;;;;;;6.26;44.85;97276.50;6296182;28;20234;-35
2023/03/05 12:46:40;;;;;;;14.60;9.67;;;;;;;6.42;45.01;97267.13;6297186;28;20229;-36
2023/03/05 12:49:47;;;;;;;16.63;10.07;;;;;;;6.72;44.25;97267.88;6298912;28;20221;-36
2023/03/05 12:52:49;;;;;;;16.70;10.27;;;;;;;7.00;44.42;97269.09;6291869;28;20263;-36
2023/03/05 12:56:15;;;;;;;15.53;10.47;;;;;;;6.60;44.13;97271.53;6297418;28;20216;-36
2023/03/05 12:59:20;;;;;;;14.80;10.50;;;;;;;6.20;45.81;97283.47;6295492;28;20226;-36
2023/03/05 13:02:30;;;;;;;16.57;10.80;;;;;;;6.18;45.49;97279.44;6300294;28;20236;-36
2023/03/05 13:05:38;;;;;;;14.33;10.33;;;;;;;6.10;44.80;97210.97;6267987;28;20230;-36
2023/03/05 13:08:42;;;;;;;14.27;9.20;;;;;;;6.83;43.95;97254.91;6297692;28;20317;-36
2023/03/05 13:11:51;;;;;;;16.17;10.57;;;;;;;6.79;42.99;97257.19;6299423;28;20239;-36
2023/03/05 13:15:08;;;;;;;18.80;9.93;;;;;;;6.70;43.66;97251.44;6293260;28;20244;-36
2023/03/05 13:18:23;;;;;;;15.60;9.80;;;;;;;6.53;44.45;97255.75;6285993;28;20233;-35
2023/03/05 13:21:30;;;;;;;13.17;10.20;;;;;;;6.57;44.07;97264.84;6295078;28;20248;-36
2023/03/05 13:24:33;;;;;;;14.30;9.80;;;;;;;6.51;44.35;97264.97;6288204;28;20547;-35
2023/03/05 13:27:36;;;;;;;15.83;10.03;;;;;;;6.30;44.87;97251.19;6307749;28;20263;-36
2023/03/05 13:30:49;;;;;;;17.40;9.83;;;;;;;5.98;44.32;97266.47;6295842;28;20562;-36
2023/03/05 13:33:58;;;;;;;16.43;9.63;;;;;;;5.93;45.02;97224.03;6273490;28;20242;-36
2023/03/05 13:37:08;;;;;;;14.67;9.33;;;;;;;6.17;45.11;97257.47;6282722;28;20235;-36
2023/03/05 13:40:21;;;;;;;15.93;10.03;;;;;;;6.32;44.83;97241.22;6294656;28;20261;-36
2023/03/05 13:43:24;;;;;;;14.17;9.97;;;;;;;6.53;45.32;97245.16;6301916;28;20240;-36
2023/03/05 13:46:39;;;;;;;14.23;10.03;;;;;;;6.27;45.12;97246.38;6295709;28;20267;-36
2023/03/05 13:49:43;;;;;;;13.97;10.00;;;;;;;6.13;45.22;97245.72;6275765;28;20241;-36
2023/03/05 13:52:49;;;;;;;13.07;10.00;;;;;;;6.21;44.92;97239.34;6276251;28;20219;-36
2023/03/05 13:55:56;;;;;;;14.57;9.57;;;;;;;5.87;45.62;97209.84;6292921;28;20230;-36
2023/03/05 13:58:59;;;;;;;14.07;9.50;;;;;;;5.60;46.21;97234.97;6293546;28;20230;-36
2023/03/05 14:02:23;;;;;;;15.37;10.17;;;;;;;5.29;47.32;97242.00;6290993;28;20305;-36
2023/03/05 14:05:29;;;;;;;15.37;9.33;;;;;;;5.18;47.64;97245.38;6295598;28;20341;-36
2023/03/05 14:08:32;;;;;;;13.93;9.40;;;;;;;5.23;47.41;97236.81;6299865;28;20305;-36
2023/03/05 14:11:35;;;;;;;13.17;8.90;;;;;;;5.22;47.34;97232.53;6296180;28;20225;-36
2023/03/05 14:14:38;;;;;;;15.45;11.35;;;;;;;5.45;47.23;97232.69;6296895;28;20964;-36
2023/03/05 14:17:42;;;;;;;13.60;9.47;;;;;;;5.26;47.68;97223.16;6295569;28;20315;-36
2023/03/05 14:20:58;;;;;;;14.40;10.13;;;;;;;4.94;48.51;97225.09;6296795;28;20304;-36
2023/03/05 14:24:12;;;;;;;14.43;9.93;;;;;;;4.83;48.95;97213.41;6293060;28;20908;-36